createdAt,value
2023-03-10T00:00:06.070Z,97455.78
2023-03-10T00:03:08.162Z,97452.09
2023-03-10T00:06:15.443Z,97457.44
2023-03-10T00:09:17.280Z,97457.81
2023-03-10T00:12:19.383Z,97466.03
2023-03-10T00:15:21.225Z,97446.31
2023-03-10T00:18:23.264Z,97452.91
2023-03-10T00:21:28.273Z,97443.47
2023-03-10T00:24:30.155Z,97449.63
2023-03-10T00:27:32.147Z,97456.19
2023-03-10T00:30:35.384Z,97461.91
2023-03-10T00:33:37.905Z,97463.75
2023-03-10T00:36:40.646Z,97463.13
2023-03-10T00:39:45.034Z,97460.22
2023-03-10T00:42:47.008Z,97470.50
2023-03-10T00:45:48.826Z,97461.44
2023-03-10T00:48:51.228Z,97461.03
2023-03-10T00:51:54.474Z,97467.00
2023-03-10T00:54:57.554Z,97456.53
2023-03-10T00:57:59.419Z,97459.41
2023-03-10T01:01:02.344Z,97460.63
2023-03-10T01:04:06.032Z,97472.94
2023-03-10T01:07:07.932Z,97470.03
2023-03-10T01:10:14.772Z,97470.66
2023-03-10T01:13:18.152Z,97470.84
2023-03-10T01:16:20.184Z,97462.84
2023-03-10T01:19:22.042Z,97471.63
2023-03-10T01:22:23.909Z,97468.16
2023-03-10T01:25:26.893Z,97468.97
2023-03-10T01:28:28.787Z,97466.06
2023-03-10T01:31:31.709Z,97468.94
2023-03-10T01:34:34.110Z,97473.25
2023-03-10T01:37:37.135Z,97468.09
2023-03-10T01:40:40.075Z,97478.56
2023-03-10T01:43:49.450Z,97492.50
2023-03-10T01:46:53.725Z,97494.16
2023-03-10T01:50:04.696Z,97493.31
2023-03-10T01:53:07.778Z,97493.72
2023-03-10T01:56:09.732Z,97495.31
2023-03-10T01:59:12.746Z,97486.03
2023-03-10T02:02:18.933Z,97486.81
2023-03-10T02:05:21.704Z,97485.94
2023-03-10T02:08:25.475Z,97484.88
2023-03-10T02:11:27.826Z,97491.16
2023-03-10T02:14:31.838Z,97495.44
2023-03-10T02:17:34.364Z,97512.44
2023-03-10T02:21:01.303Z,97511.16
2023-03-10T02:24:05.305Z,97523.59
2023-03-10T02:27:45.699Z,97529.13
2023-03-10T02:30:53.516Z,97536.03
2023-03-10T02:33:56.510Z,97532.91
2023-03-10T02:36:58.465Z,97534.94
2023-03-10T02:40:00.400Z,97525.50
2023-03-10T02:43:11.570Z,97526.06
2023-03-10T02:46:14.238Z,97533.78
2023-03-10T02:49:21.772Z,97537.03
2023-03-10T02:52:42.640Z,97535.94
2023-03-10T02:55:45.789Z,97538.78
2023-03-10T02:58:48.077Z,97538.53
2023-03-10T03:01:52.944Z,97548.91
2023-03-10T03:04:55.606Z,97545.03
2023-03-10T03:07:57.551Z,97554.22
2023-03-10T03:11:09.940Z,97556.25
2023-03-10T03:14:12.164Z,97563.88
2023-03-10T03:17:14.623Z,97564.69
2023-03-10T03:20:17.371Z,97571.41
2023-03-10T03:23:21.802Z,97570.94
2023-03-10T03:26:26.956Z,97575.38
2023-03-10T03:29:42.868Z,97567.28
2023-03-10T03:32:46.964Z,97572.16
2023-03-10T03:35:49.201Z,97577.22
2023-03-10T03:38:55.540Z,97575.28
2023-03-10T03:41:57.605Z,97575.66
2023-03-10T03:45:04.818Z,97574.53
2023-03-10T03:48:06.729Z,97586.84
2023-03-10T03:51:10.806Z,97590.97
2023-03-10T03:54:18.474Z,97599.84
2023-03-10T03:57:23.932Z,97605.53
2023-03-10T04:00:26.141Z,97603.59
2023-03-10T04:03:37.527Z,97607.44
2023-03-10T04:06:39.604Z,97605.16
2023-03-10T04:09:43.809Z,97609.31
2023-03-10T04:12:46.377Z,97620.50
2023-03-10T04:15:50.875Z,97614.34
2023-03-10T04:18:52.939Z,97619.84
2023-03-10T04:21:54.939Z,97629.19
2023-03-10T04:24:59.144Z,97634.16
2023-03-10T04:28:01.069Z,97638.16
2023-03-10T04:31:04.188Z,97648.09
2023-03-10T04:34:09.833Z,97652.03
2023-03-10T04:37:13.379Z,97661.34
2023-03-10T04:40:15.997Z,97668.31
2023-03-10T04:43:18.109Z,97677.25
2023-03-10T04:46:20.355Z,97685.22
2023-03-10T04:49:22.503Z,97688.53
2023-03-10T04:52:26.398Z,97693.13
2023-03-10T04:55:28.528Z,97695.44
2023-03-10T04:58:34.771Z,97709.38
2023-03-10T05:01:36.796Z,97716.19
2023-03-10T05:04:41.558Z,97735.28
2023-03-10T05:07:44.913Z,97739.41
2023-03-10T05:10:47.877Z,97740.88
2023-03-10T05:13:50.604Z,97737.22
2023-03-10T05:16:55.138Z,97745.13
2023-03-10T05:20:00.471Z,97748.44
2023-03-10T05:23:03.077Z,97743.88
2023-03-10T05:26:07.305Z,97747.09
2023-03-10T05:29:09.461Z,97739.22
2023-03-10T05:32:18.167Z,97752.63
2023-03-10T05:35:22.192Z,97752.09
2023-03-10T05:38:24.230Z,97749.91
2023-03-10T05:41:28.997Z,97760.47
2023-03-10T05:44:33.049Z,97770.03
2023-03-10T05:47:36.754Z,97768.47
2023-03-10T05:50:41.765Z,97767.09
2023-03-10T05:53:44.157Z,97776.56
2023-03-10T05:56:51.266Z,97781.63
2023-03-10T05:59:55.985Z,97787.22
2023-03-10T06:02:58.351Z,97798.53
2023-03-10T06:06:00.359Z,97810.47
2023-03-10T06:09:02.306Z,97818.38
2023-03-10T06:12:04.496Z,97822.88
2023-03-10T06:15:06.962Z,97826.94
2023-03-10T06:18:08.825Z,97830.69
2023-03-10T06:21:13.554Z,97834.47
2023-03-10T06:24:15.593Z,97832.44
2023-03-10T06:27:19.012Z,97829.22
2023-03-10T06:30:21.239Z,97831.50
2023-03-10T06:33:24.749Z,97829.72
2023-03-10T06:36:28.261Z,97843.31
2023-03-10T06:39:30.174Z,97844.34
2023-03-10T06:42:32.934Z,97846.09
2023-03-10T06:45:35.053Z,97864.13
2023-03-10T06:48:38.231Z,97863.28
2023-03-10T06:51:40.690Z,97867.72
2023-03-10T06:54:44.006Z,97874.16
2023-03-10T06:57:45.910Z,97875.72
2023-03-10T07:00:47.844Z,97880.16
2023-03-10T07:03:50.135Z,97883.19
2023-03-10T07:06:53.699Z,97894.16
2023-03-10T07:09:57.672Z,97905.66
2023-03-10T07:13:02.987Z,97901.81
2023-03-10T07:16:05.596Z,97911.94
2023-03-10T07:19:07.449Z,97911.94
2023-03-10T07:22:11.533Z,97919.69
2023-03-10T07:25:13.539Z,97918.47
2023-03-10T07:28:15.457Z,97926.22
2023-03-10T07:31:17.731Z,97933.59
2023-03-10T07:34:21.330Z,97936.63
2023-03-10T07:37:23.206Z,97953.00
2023-03-10T07:40:25.322Z,97955.13
2023-03-10T07:43:27.247Z,97960.81
2023-03-10T07:46:29.368Z,97965.66
2023-03-10T07:49:31.711Z,97970.03
2023-03-10T07:52:37.923Z,97972.47
2023-03-10T07:55:39.844Z,97984.25
2023-03-10T07:58:42.176Z,97990.69
2023-03-10T08:01:44.111Z,98002.09
2023-03-10T08:04:45.976Z,98001.50
2023-03-10T08:07:51.729Z,98010.25
2023-03-10T08:11:09.783Z,98013.31
2023-03-10T08:14:12.877Z,98021.28
2023-03-10T08:17:15.282Z,98029.44
2023-03-10T08:20:17.530Z,98038.44
2023-03-10T08:23:19.480Z,98044.09
2023-03-10T08:26:21.579Z,98052.06
2023-03-10T08:29:26.819Z,98055.91
2023-03-10T08:32:28.667Z,98066.88
2023-03-10T08:35:33.883Z,98073.34
2023-03-10T08:38:36.560Z,98082.50
2023-03-10T08:41:46.670Z,98089.81
2023-03-10T08:44:51.059Z,98097.13
2023-03-10T08:47:52.959Z,98094.47
2023-03-10T08:50:54.811Z,98099.97
2023-03-10T08:54:00.822Z,98110.78
2023-03-10T08:57:02.729Z,98124.75
2023-03-10T09:00:11.782Z,98126.75
2023-03-10T09:03:15.524Z,98146.38
2023-03-10T09:06:17.624Z,98155.00
2023-03-10T09:09:26.727Z,98161.97
2023-03-10T09:12:34.541Z,98162.31
2023-03-10T09:15:41.325Z,98165.31
2023-03-10T09:18:43.698Z,98174.44
2023-03-10T09:21:45.597Z,98178.44
2023-03-10T09:24:47.455Z,98181.78
2023-03-10T09:27:49.642Z,98185.09
2023-03-10T09:30:54.152Z,98188.59
2023-03-10T09:33:56.063Z,98200.88
2023-03-10T09:36:58.016Z,98204.22
2023-03-10T09:39:59.918Z,98197.22
2023-03-10T09:43:09.437Z,98203.22
2023-03-10T09:46:25.437Z,98205.53
2023-03-10T09:49:40.086Z,98206.03
2023-03-10T09:52:57.875Z,98217.50
2023-03-10T09:56:09.863Z,98211.50
2023-03-10T09:59:27.477Z,98211.50
2023-03-10T10:02:41.682Z,98214.50
2023-03-10T10:05:44.905Z,98211.66
2023-03-10T10:09:22.918Z,98215.47
2023-03-10T10:12:26.106Z,98200.97
2023-03-10T10:15:29.199Z,98195.13
2023-03-10T10:18:59.678Z,98184.09
2023-03-10T10:22:21.163Z,98183.22
2023-03-10T10:25:30.477Z,98183.72
2023-03-10T10:29:07.235Z,98189.53
2023-03-10T10:32:14.286Z,98187.00
2023-03-10T10:35:22.621Z,98183.69
2023-03-10T10:38:31.572Z,98190.97
2023-03-10T10:41:34.883Z,98189.94
2023-03-10T10:44:41.717Z,98186.88
2023-03-10T10:47:49.276Z,98180.03
2023-03-10T10:50:55.993Z,98185.59
2023-03-10T10:54:28.234Z,98203.16
2023-03-10T10:57:36.681Z,98212.44
2023-03-10T11:00:43.162Z,98212.97
2023-03-10T11:03:48.118Z,98211.78
2023-03-10T11:06:50.900Z,98209.09
2023-03-10T11:09:53.360Z,98205.16
2023-03-10T11:13:19.905Z,98217.44
2023-03-10T11:16:52.744Z,98203.50
2023-03-10T11:20:25.609Z,98206.84
2023-03-10T11:23:33.635Z,98212.38
2023-03-10T11:27:18.469Z,98218.88
2023-03-10T11:30:25.827Z,98226.47
2023-03-10T11:33:57.114Z,98233.47
2023-03-10T11:37:16.761Z,98236.13
2023-03-10T11:40:27.240Z,98238.53
2023-03-10T11:43:52.242Z,98249.88
2023-03-10T11:47:04.615Z,98253.41
2023-03-10T11:50:35.283Z,98255.91
2023-03-10T11:53:53.598Z,98250.31
2023-03-10T11:56:56.260Z,98260.41
2023-03-10T12:00:02.655Z,98261.94
2023-03-10T12:03:30.797Z,98270.41
2023-03-10T12:06:39.014Z,98270.59
2023-03-10T12:09:46.537Z,98278.91
2023-03-10T12:12:50.354Z,98278.22
2023-03-10T12:15:57.091Z,98276.22
2023-03-10T12:18:59.160Z,98280.19
2023-03-10T12:22:36.144Z,98289.38
2023-03-10T12:25:38.537Z,98297.03
2023-03-10T12:28:41.416Z,98293.56
2023-03-10T12:31:54.189Z,98301.56
2023-03-10T12:35:21.907Z,98298.94
2023-03-10T12:38:30.894Z,98302.28
2023-03-10T12:41:46.371Z,98303.94
2023-03-10T12:44:55.850Z,98299.28
2023-03-10T12:48:16.971Z,98318.59
2023-03-10T12:51:25.192Z,98312.75
2023-03-10T12:55:03.142Z,98320.59
2023-03-10T12:58:15.459Z,98317.59
2023-03-10T13:01:23.072Z,98319.53
2023-03-10T13:04:28.577Z,98323.34
2023-03-10T13:07:33.788Z,98330.53
2023-03-10T13:10:39.748Z,98328.53
2023-03-10T13:13:41.738Z,98338.91
2023-03-10T13:17:00.853Z,98346.06
2023-03-10T13:20:08.583Z,98332.41
2023-03-10T13:23:30.005Z,98324.91
2023-03-10T13:26:34.945Z,98330.25
2023-03-10T13:29:39.324Z,98344.41
2023-03-10T13:32:42.099Z,98335.59
2023-03-10T13:35:44.202Z,98340.25
2023-03-10T13:38:46.042Z,98337.59
2023-03-10T13:41:53.737Z,98333.59
2023-03-10T13:44:56.379Z,98335.59
2023-03-10T13:48:00.839Z,98326.44
2023-03-10T13:51:22.579Z,98325.13
2023-03-10T13:54:27.003Z,98320.94
2023-03-10T13:57:35.143Z,98314.44
2023-03-10T14:00:37.090Z,98323.94
2023-03-10T14:03:51.504Z,98315.94
2023-03-10T14:07:16.883Z,98309.97
2023-03-10T14:10:19.977Z,98305.97
2023-03-10T14:13:44.924Z,98307.81
2023-03-10T14:17:02.940Z,98320.63
2023-03-10T14:20:10.072Z,98323.13
2023-03-10T14:23:25.866Z,98322.31
2023-03-10T14:26:27.856Z,98324.63
2023-03-10T14:29:32.531Z,98333.97
2023-03-10T14:32:34.461Z,98339.94
2023-03-10T14:35:36.453Z,98345.09
2023-03-10T14:38:38.243Z,98348.78
2023-03-10T14:41:40.090Z,98346.28
2023-03-10T14:44:48.382Z,98359.75
2023-03-10T14:47:51.377Z,98356.59
2023-03-10T14:50:58.427Z,98351.75
2023-03-10T14:54:00.307Z,98350.91
2023-03-10T14:57:02.256Z,98349.09
2023-03-10T15:00:06.705Z,98359.06
2023-03-10T15:03:11.840Z,98366.38
2023-03-10T15:06:15.535Z,98369.88
2023-03-10T15:09:19.756Z,98363.88
2023-03-10T15:12:21.906Z,98368.88
2023-03-10T15:15:31.098Z,98364.19
2023-03-10T15:18:33.018Z,98376.16
2023-03-10T15:21:37.895Z,98379.16
2023-03-10T15:24:39.734Z,98386.81
2023-03-10T15:27:46.268Z,98386.13
2023-03-10T15:30:50.840Z,98386.09
2023-03-10T15:33:52.741Z,98400.41
2023-03-10T15:36:56.551Z,98394.41
2023-03-10T15:39:58.395Z,98395.41
2023-03-10T15:43:00.468Z,98402.03
2023-03-10T15:46:06.808Z,98397.88
2023-03-10T15:49:08.754Z,98396.50
2023-03-10T15:52:14.001Z,98401.47
2023-03-10T15:55:16.904Z,98405.59
2023-03-10T15:58:19.060Z,98403.91
2023-03-10T16:01:21.205Z,98419.50
2023-03-10T16:04:23.839Z,98416.13
2023-03-10T16:07:25.916Z,98418.41
2023-03-10T16:10:27.865Z,98423.69
2023-03-10T16:13:29.666Z,98422.31
2023-03-10T16:16:31.624Z,98430.28
2023-03-10T16:19:33.580Z,98431.28
2023-03-10T16:22:41.608Z,98423.63
2023-03-10T16:25:43.538Z,98435.56
2023-03-10T16:28:52.963Z,98434.19
2023-03-10T16:31:55.305Z,98439.34
2023-03-10T16:34:57.333Z,98438.66
2023-03-10T16:38:01.052Z,98452.25
2023-03-10T16:41:04.808Z,98463.03
2023-03-10T16:44:11.421Z,98453.38
2023-03-10T16:47:13.354Z,98450.88
2023-03-10T16:50:15.252Z,98453.53
2023-03-10T16:53:17.873Z,98448.38
2023-03-10T16:56:20.192Z,98461.66
2023-03-10T16:59:24.785Z,98451.19
2023-03-10T17:02:26.648Z,98457.66
2023-03-10T17:05:28.712Z,98461.44
2023-03-10T17:08:30.574Z,98461.75
2023-03-10T17:11:35.862Z,98454.78
2023-03-10T17:14:37.810Z,98454.56
2023-03-10T17:17:39.655Z,98460.69
2023-03-10T17:20:41.553Z,98457.50
2023-03-10T17:23:45.205Z,98460.47
2023-03-10T17:26:47.300Z,98460.47
2023-03-10T17:29:49.446Z,98458.28
2023-03-10T17:32:51.445Z,98461.09
2023-03-10T17:35:53.401Z,98455.53
2023-03-10T17:38:57.491Z,98457.38
2023-03-10T17:41:59.445Z,98464.25
2023-03-10T17:45:04.027Z,98465.41
2023-03-10T17:48:07.077Z,98456.53
2023-03-10T17:51:09.828Z,98461.00
2023-03-10T17:54:14.493Z,98456.81
2023-03-10T17:57:16.455Z,98461.75
2023-03-10T18:00:19.642Z,98462.72
2023-03-10T18:03:22.280Z,98463.56
2023-03-10T18:06:32.452Z,98461.91
2023-03-10T18:09:34.563Z,98459.69
2023-03-10T18:12:36.445Z,98452.19
2023-03-10T18:15:38.866Z,98460.28
2023-03-10T18:18:40.699Z,98462.25
2023-03-10T18:21:42.518Z,98459.22
2023-03-10T18:24:44.421Z,98454.22
2023-03-10T18:27:46.518Z,98452.53
2023-03-10T18:30:52.119Z,98458.97
2023-03-10T18:33:54.503Z,98466.94
2023-03-10T18:36:56.609Z,98453.44
2023-03-10T18:40:03.194Z,98453.03
2023-03-10T18:43:05.084Z,98453.19
2023-03-10T18:46:08.296Z,98453.88
2023-03-10T18:49:13.295Z,98456.69
2023-03-10T18:52:18.696Z,98458.34
2023-03-10T18:55:20.652Z,98453.72
2023-03-10T18:58:22.696Z,98456.69
2023-03-10T19:01:25.759Z,98461.97
2023-03-10T19:04:27.757Z,98466.16
2023-03-10T19:07:29.741Z,98457.91
2023-03-10T19:10:31.708Z,98455.53
2023-03-10T19:13:33.755Z,98455.69
2023-03-10T19:16:36.065Z,98460.31
2023-03-10T19:19:37.882Z,98455.16
2023-03-10T19:22:40.092Z,98465.91
2023-03-10T19:25:42.296Z,98459.09
2023-03-10T19:28:44.538Z,98456.28
2023-03-10T19:31:50.817Z,98455.31
2023-03-10T19:34:53.463Z,98455.44
2023-03-10T19:37:55.700Z,98457.66
2023-03-10T19:40:58.376Z,98456.97
2023-03-10T19:44:00.309Z,98436.75
2023-03-10T19:47:02.303Z,98430.06
2023-03-10T19:50:10.619Z,98428.41
2023-03-10T19:53:12.616Z,98424.91
2023-03-10T19:56:18.365Z,98429.53
2023-03-10T19:59:20.470Z,98434.69
2023-03-10T20:02:22.398Z,98435.38
2023-03-10T20:05:26.956Z,98439.00
2023-03-10T20:08:28.920Z,98454.91
2023-03-10T20:11:33.796Z,98455.59
2023-03-10T20:14:35.656Z,98462.28
2023-03-10T20:17:38.026Z,98455.84
2023-03-10T20:20:43.555Z,98462.97
2023-03-10T20:23:48.166Z,98461.69
2023-03-10T20:26:50.702Z,98461.69
2023-03-10T20:29:52.911Z,98462.66
2023-03-10T20:33:00.306Z,98458.63
2023-03-10T20:36:03.105Z,98456.28
2023-03-10T20:39:06.502Z,98464.94
2023-03-10T20:42:08.831Z,98464.94
2023-03-10T20:45:13.956Z,98461.28
2023-03-10T20:48:15.848Z,98465.47
2023-03-10T20:51:19.193Z,98450.53
2023-03-10T20:54:21.350Z,98452.91
2023-03-10T20:57:23.337Z,98447.19
2023-03-10T21:00:28.771Z,98439.00
2023-03-10T21:03:31.527Z,98431.50
2023-03-10T21:06:33.505Z,98436.09
2023-03-10T21:09:39.448Z,98436.53
2023-03-10T21:12:43.096Z,98435.16
2023-03-10T21:15:45.056Z,98429.03
2023-03-10T21:18:47.160Z,98437.13
2023-03-10T21:21:49.801Z,98441.75
2023-03-10T21:24:53.053Z,98433.94
2023-03-10T21:28:02.942Z,98428.50
2023-03-10T21:31:05.506Z,98422.09
2023-03-10T21:34:07.561Z,98422.41
2023-03-10T21:37:09.977Z,98413.47
2023-03-10T21:40:15.082Z,98409.00
2023-03-10T21:43:17.238Z,98414.31
2023-03-10T21:46:21.562Z,98407.88
2023-03-10T21:49:23.593Z,98405.66
2023-03-10T21:52:29.486Z,98400.66
2023-03-10T21:55:34.526Z,98402.22
2023-03-10T21:58:36.731Z,98393.97
2023-03-10T22:01:38.998Z,98396.22
2023-03-10T22:04:44.161Z,98397.50
2023-03-10T22:07:46.050Z,98404.88
2023-03-10T22:10:48.883Z,98402.06
2023-03-10T22:13:53.330Z,98406.53
2023-03-10T22:16:58.170Z,98409.03
2023-03-10T22:20:01.774Z,98421.31
2023-03-10T22:23:05.033Z,98409.72
2023-03-10T22:26:07.739Z,98408.75
2023-03-10T22:29:09.641Z,98412.69
2023-03-10T22:32:11.936Z,98411.53
2023-03-10T22:35:14.385Z,98408.22
2023-03-10T22:38:16.704Z,98417.97
2023-03-10T22:41:18.732Z,98403.88
2023-03-10T22:44:20.582Z,98401.25
2023-03-10T22:47:23.425Z,98401.94
2023-03-10T22:50:28.429Z,98400.56
2023-03-10T22:53:30.282Z,98406.53
2023-03-10T22:56:33.197Z,98394.56
2023-03-10T22:59:35.100Z,98395.69
2023-03-10T23:02:36.978Z,98383.28
2023-03-10T23:05:38.838Z,98387.75
2023-03-10T23:08:43.698Z,98394.72
2023-03-10T23:11:46.762Z,98385.38
2023-03-10T23:14:48.481Z,98389.75
2023-03-10T23:17:50.345Z,98384.97
2023-03-10T23:20:53.122Z,98385.69
2023-03-10T23:23:55.240Z,98387.94
2023-03-10T23:26:57.125Z,98379.84
2023-03-10T23:29:59.041Z,98374.81
2023-03-10T23:33:00.933Z,98372.31
2023-03-10T23:36:08.228Z,98372.47
2023-03-10T23:39:13.529Z,98366.47
2023-03-10T23:42:17.662Z,98356.47
2023-03-10T23:45:21.577Z,98353.53
2023-03-10T23:48:28.780Z,98350.03
2023-03-10T23:51:43.047Z,98352.00
2023-03-10T23:54:45.019Z,98355.22
2023-03-10T23:57:46.924Z,98340.19
